sensor_id;sensor_type;location;lat;lon;timestamp;pressure;altitude;pressure_sealevel;temperature;humidity
66887;BME280;53798;51.680;5.976;2022-08-20T00:01:15;101429.03;;;20.23;88.28
66887;BME280;53798;51.680;5.976;2022-08-20T00:03:42;101420.25;;;20.21;88.63
66887;BME280;53798;51.680;5.976;2022-08-20T00:06:18;101427.31;;;20.22;88.64
66887;BME280;53798;51.680;5.976;2022-08-20T00:08:48;101420.16;;;20.22;88.43
66887;BME280;53798;51.680;5.976;2022-08-20T00:11:21;101418.34;;;20.23;88.83
66887;BME280;53798;51.680;5.976;2022-08-20T00:13:54;101418.34;;;20.23;88.76
66887;BME280;53798;51.680;5.976;2022-08-20T00:16:25;101415.59;;;20.24;88.70
66887;BME280;53798;51.680;5.976;2022-08-20T00:19:00;101421.88;;;20.23;88.65
66887;BME280;53798;51.680;5.976;2022-08-20T00:21:27;101414.88;;;20.21;88.73
66887;BME280;53798;51.680;5.976;2022-08-20T00:23:57;101416.63;;;20.22;88.42
66887;BME280;53798;51.680;5.976;2022-08-20T00:26:25;101421.13;;;20.21;88.39
66887;BME280;53798;51.680;5.976;2022-08-20T00:28:52;101415.94;;;20.18;88.34
66887;BME280;53798;51.680;5.976;2022-08-20T00:31:22;101419.56;;;20.17;88.39
66887;BME280;53798;51.680;5.976;2022-08-20T00:33:50;101415.19;;;20.16;88.62
66887;BME280;53798;51.680;5.976;2022-08-20T00:36:19;101417.97;;;20.14;88.55
66887;BME280;53798;51.680;5.976;2022-08-20T00:38:47;101417.19;;;20.12;88.68
66887;BME280;53798;51.680;5.976;2022-08-20T00:41:18;101422.53;;;20.12;88.81
66887;BME280;53798;51.680;5.976;2022-08-20T00:43:51;101419.97;;;20.11;88.84
66887;BME280;53798;51.680;5.976;2022-08-20T00:46:32;101420.91;;;20.10;88.52
66887;BME280;53798;51.680;5.976;2022-08-20T00:49:00;101418.41;;;20.07;88.54
66887;BME280;53798;51.680;5.976;2022-08-20T00:51:44;101424.84;;;20.04;88.63
66887;BME280;53798;51.680;5.976;2022-08-20T00:54:22;101417.94;;;20.00;88.66
66887;BME280;53798;51.680;5.976;2022-08-20T00:57:01;101424.25;;;19.99;88.51
66887;BME280;53798;51.680;5.976;2022-08-20T00:59:33;101420.72;;;19.98;88.18
66887;BME280;53798;51.680;5.976;2022-08-20T01:02:05;101425.50;;;19.93;88.32
66887;BME280;53798;51.680;5.976;2022-08-20T01:04:35;101424.78;;;19.90;87.84
66887;BME280;53798;51.680;5.976;2022-08-20T01:07:05;101414.31;;;19.86;87.53
66887;BME280;53798;51.680;5.976;2022-08-20T01:09:35;101421.63;;;19.83;87.26
66887;BME280;53798;51.680;5.976;2022-08-20T01:12:24;101420.75;;;19.82;87.34
66887;BME280;53798;51.680;5.976;2022-08-20T01:14:53;101418.19;;;19.81;86.91
66887;BME280;53798;51.680;5.976;2022-08-20T01:17:24;101422.94;;;19.76;87.07
66887;BME280;53798;51.680;5.976;2022-08-20T01:20:06;101416.72;;;19.75;87.04
66887;BME280;53798;51.680;5.976;2022-08-20T01:22:45;101422.94;;;19.76;87.07
66887;BME280;53798;51.680;5.976;2022-08-20T01:28:15;101426.53;;;19.75;87.34
66887;BME280;53798;51.680;5.976;2022-08-20T01:30:46;101428.28;;;19.76;87.42
66887;BME280;53798;51.680;5.976;2022-08-20T01:33:13;101426.47;;;19.76;87.45
66887;BME280;53798;51.680;5.976;2022-08-20T01:35:42;101431.81;;;19.76;87.00
66887;BME280;53798;51.680;5.976;2022-08-20T01:38:11;101432.69;;;19.77;87.03
66887;BME280;53798;51.680;5.976;2022-08-20T01:43:06;101434.94;;;19.68;86.88
66887;BME280;53798;51.680;5.976;2022-08-20T01:45:35;101430.38;;;19.70;87.34
66887;BME280;53798;51.680;5.976;2022-08-20T01:48:06;101433.41;;;19.64;87.29
66887;BME280;53798;51.680;5.976;2022-08-20T01:50:37;101429.81;;;19.49;87.72
66887;BME280;53798;51.680;5.976;2022-08-20T01:53:16;101424.28;;;19.38;87.89
66887;BME280;53798;51.680;5.976;2022-08-20T01:55:46;101425.81;;;19.26;88.43
66887;BME280;53798;51.680;5.976;2022-08-20T01:58:13;101420.31;;;19.13;88.53
66887;BME280;53798;51.680;5.976;2022-08-20T02:00:42;101422.66;;;19.03;89.32
66887;BME280;53798;51.680;5.976;2022-08-20T02:03:09;101425.69;;;18.97;89.86
66887;BME280;53798;51.680;5.976;2022-08-20T02:05:36;101427.66;;;18.93;89.89
66887;BME280;53798;51.680;5.976;2022-08-20T02:08:04;101429.53;;;18.91;90.40
66887;BME280;53798;51.680;5.976;2022-08-20T02:10:31;101426.06;;;18.89;90.74
66887;BME280;53798;51.680;5.976;2022-08-20T02:13:00;101424.34;;;18.88;91.05
66887;BME280;53798;51.680;5.976;2022-08-20T02:15:27;101429.88;;;18.85;90.92
66887;BME280;53798;51.680;5.976;2022-08-20T02:18:09;101428.31;;;18.81;91.47
66887;BME280;53798;51.680;5.976;2022-08-20T02:20:39;101426.69;;;18.78;91.30
66887;BME280;53798;51.680;5.976;2022-08-20T02:23:10;101430.47;;;18.74;91.80
66887;BME280;53798;51.680;5.976;2022-08-20T02:25:40;101440.47;;;18.71;91.82
66887;BME280;53798;51.680;5.976;2022-08-20T02:28:12;101429.00;;;18.69;91.76
66887;BME280;53798;51.680;5.976;2022-08-20T02:30:45;101425.38;;;18.70;92.15
66887;BME280;53798;51.680;5.976;2022-08-20T02:33:17;101428.00;;;18.71;92.40
66887;BME280;53798;51.680;5.976;2022-08-20T02:35:51;101436.69;;;18.75;92.37
66887;BME280;53798;51.680;5.976;2022-08-20T02:38:22;101445.69;;;18.72;91.98
66887;BME280;53798;51.680;5.976;2022-08-20T02:40:50;101445.09;;;18.67;91.79
66887;BME280;53798;51.680;5.976;2022-08-20T02:43:17;101438.97;;;18.65;92.10
66887;BME280;53798;51.680;5.976;2022-08-20T02:45:46;101439.16;;;18.62;92.22
66887;BME280;53798;51.680;5.976;2022-08-20T02:48:16;101448.13;;;18.61;92.40
66887;BME280;53798;51.680;5.976;2022-08-20T02:50:55;101437.44;;;18.61;92.61
66887;BME280;53798;51.680;5.976;2022-08-20T02:53:30;101428.31;;;18.65;92.67
66887;BME280;53798;51.680;5.976;2022-08-20T02:55:59;101433.59;;;18.67;92.74
66887;BME280;53798;51.680;5.976;2022-08-20T02:58:27;101435.28;;;18.68;92.73
66887;BME280;53798;51.680;5.976;2022-08-20T03:00:54;101437.94;;;18.68;92.97
66887;BME280;53798;51.680;5.976;2022-08-20T03:03:22;101434.28;;;18.70;93.04
66887;BME280;53798;51.680;5.976;2022-08-20T03:05:54;101433.38;;;18.70;93.25
66887;BME280;53798;51.680;5.976;2022-08-20T03:08:24;101440.47;;;18.71;93.21
66887;BME280;53798;51.680;5.976;2022-08-20T03:10:53;101425.56;;;18.67;93.36
66887;BME280;53798;51.680;5.976;2022-08-20T03:13:20;101430.91;;;18.67;93.32
66887;BME280;53798;51.680;5.976;2022-08-20T03:15:57;101435.28;;;18.68;93.33
66887;BME280;53798;51.680;5.976;2022-08-20T03:18:37;101439.69;;;18.69;93.63
66887;BME280;53798;51.680;5.976;2022-08-20T03:21:10;101435.91;;;18.73;93.96
66887;BME280;53798;51.680;5.976;2022-08-20T03:23:41;101426.84;;;18.75;93.76
66887;BME280;53798;51.680;5.976;2022-08-20T03:26:11;101435.75;;;18.76;93.63
66887;BME280;53798;51.680;5.976;2022-08-20T03:28:40;101438.41;;;18.76;93.32
66887;BME280;53798;51.680;5.976;2022-08-20T03:31:08;101437.53;;;18.75;93.60
66887;BME280;53798;51.680;5.976;2022-08-20T03:33:41;101435.75;;;18.76;93.50
66887;BME280;53798;51.680;5.976;2022-08-20T03:36:24;101436.59;;;18.76;93.79
66887;BME280;53798;51.680;5.976;2022-08-20T03:38:56;101436.59;;;18.76;93.64
66887;BME280;53798;51.680;5.976;2022-08-20T03:41:24;101423.34;;;18.75;93.77
66887;BME280;53798;51.680;5.976;2022-08-20T03:43:52;101429.53;;;18.75;93.87
66887;BME280;53798;51.680;5.976;2022-08-20T03:46:19;101423.34;;;18.75;93.76
66887;BME280;53798;51.680;5.976;2022-08-20T03:48:53;101436.69;;;18.75;93.98
66887;BME280;53798;51.680;5.976;2022-08-20T03:51:27;101435.81;;;18.74;94.26
66887;BME280;53798;51.680;5.976;2022-08-20T03:53:56;101437.38;;;18.78;94.34
66887;BME280;53798;51.680;5.976;2022-08-20T03:56:24;101439.88;;;18.82;94.37
66887;BME280;53798;51.680;5.976;2022-08-20T03:58:52;101438.91;;;18.83;94.56
66887;BME280;53798;51.680;5.976;2022-08-20T04:01:19;101432.72;;;18.82;94.54
66887;BME280;53798;51.680;5.976;2022-08-20T04:04:06;101436.22;;;18.83;94.30
66887;BME280;53798;51.680;5.976;2022-08-20T04:06:39;101445.13;;;18.83;94.27
66887;BME280;53798;51.680;5.976;2022-08-20T04:09:09;101445.03;;;18.85;94.59
66887;BME280;53798;51.680;5.976;2022-08-20T04:11:39;101448.59;;;18.85;94.33
66887;BME280;53798;51.680;5.976;2022-08-20T04:14:09;101447.69;;;18.85;94.53
66887;BME280;53798;51.680;5.976;2022-08-20T04:16:40;101451.25;;;18.85;94.69
66887;BME280;53798;51.680;5.976;2022-08-20T04:19:07;101450.38;;;18.85;94.61
66887;BME280;53798;51.680;5.976;2022-08-20T04:21:35;101455.81;;;18.83;94.67
66887;BME280;53798;51.680;5.976;2022-08-20T04:24:04;101453.25;;;18.82;94.86
66887;BME280;53798;51.680;5.976;2022-08-20T04:26:32;101454.94;;;18.83;94.79
66887;BME280;53798;51.680;5.976;2022-08-20T04:29:03;101454.94;;;18.83;94.86
66887;BME280;53798;51.680;5.976;2022-08-20T04:31:30;101459.59;;;18.79;94.65
66887;BME280;53798;51.680;5.976;2022-08-20T04:34:02;101469.31;;;18.80;94.69
66887;BME280;53798;51.680;5.976;2022-08-20T04:36:33;101467.59;;;18.79;95.09
66887;BME280;53798;51.680;5.976;2022-08-20T04:39:02;101471.84;;;18.83;95.58
66887;BME280;53798;51.680;5.976;2022-08-20T04:41:29;101469.00;;;18.86;95.47
66887;BME280;53798;51.680;5.976;2022-08-20T04:43:56;101471.41;;;18.91;95.32
66887;BME280;53798;51.680;5.976;2022-08-20T04:46:25;101473.09;;;18.93;95.46
66887;BME280;53798;51.680;5.976;2022-08-20T04:48:55;101473.78;;;18.97;95.61
66887;BME280;53798;51.680;5.976;2022-08-20T04:51:23;101478.94;;;19.00;95.44
66887;BME280;53798;51.680;5.976;2022-08-20T04:53:53;101482.31;;;19.04;95.70
66887;BME280;53798;51.680;5.976;2022-08-20T04:56:28;101484.97;;;19.04;95.51
66887;BME280;53798;51.680;5.976;2022-08-20T04:58:59;101481.38;;;19.05;95.66
66887;BME280;53798;51.680;5.976;2022-08-20T05:01:27;101489.03;;;19.11;95.26
66887;BME280;53798;51.680;5.976;2022-08-20T05:03:56;101487.13;;;19.13;95.24
66887;BME280;53798;51.680;5.976;2022-08-20T05:06:26;101488.06;;;19.12;95.15
66887;BME280;53798;51.680;5.976;2022-08-20T05:08:57;101495.31;;;19.10;95.10
66887;BME280;53798;51.680;5.976;2022-08-20T05:11:26;101492.75;;;19.08;95.22
66887;BME280;53798;51.680;5.976;2022-08-20T05:14:04;101500.66;;;19.10;95.51
66887;BME280;53798;51.680;5.976;2022-08-20T05:16:36;101507.66;;;19.13;95.32
66887;BME280;53798;51.680;5.976;2022-08-20T05:19:07;101504.09;;;19.12;95.23
66887;BME280;53798;51.680;5.976;2022-08-20T05:21:38;101503.16;;;19.13;95.06
66887;BME280;53798;51.680;5.976;2022-08-20T05:24:06;101509.34;;;19.14;95.09
66887;BME280;53798;51.680;5.976;2022-08-20T05:26:34;101501.44;;;19.12;94.87
66887;BME280;53798;51.680;5.976;2022-08-20T05:29:02;101506.00;;;19.10;94.44
66887;BME280;53798;51.680;5.976;2022-08-20T05:31:31;101503.53;;;19.07;94.07
66887;BME280;53798;51.680;5.976;2022-08-20T05:34:05;101506.34;;;19.04;93.54
66887;BME280;53798;51.680;5.976;2022-08-20T05:36:40;101512.81;;;19.00;93.70
66887;BME280;53798;51.680;5.976;2022-08-20T05:39:12;101515.72;;;18.95;93.96
66887;BME280;53798;51.680;5.976;2022-08-20T05:41:40;101516.66;;;18.94;94.46
66887;BME280;53798;51.680;5.976;2022-08-20T05:44:09;101517.63;;;18.93;94.45
66887;BME280;53798;51.680;5.976;2022-08-20T05:46:41;101520.28;;;18.93;94.47
66887;BME280;53798;51.680;5.976;2022-08-20T05:49:13;101523.91;;;18.92;94.39
66887;BME280;53798;51.680;5.976;2022-08-20T05:51:42;101519.41;;;18.92;94.49
66887;BME280;53798;51.680;5.976;2022-08-20T05:54:13;101519.41;;;18.92;94.96
66887;BME280;53798;51.680;5.976;2022-08-20T05:56:41;101522.69;;;18.98;94.97
66887;BME280;53798;51.680;5.976;2022-08-20T05:59:09;101514.38;;;19.04;94.88
66887;BME280;53798;51.680;5.976;2022-08-20T06:01:39;101520.25;;;19.11;94.73
66887;BME280;53798;51.680;5.976;2022-08-20T06:04:08;101520.84;;;19.16;94.45
66887;BME280;53798;51.680;5.976;2022-08-20T06:06:52;101512.66;;;19.19;94.20
66887;BME280;53798;51.680;5.976;2022-08-20T06:09:24;101516.16;;;19.19;94.02
66887;BME280;53798;51.680;5.976;2022-08-20T06:11:59;101522.91;;;19.27;94.61
66887;BME280;53798;51.680;5.976;2022-08-20T06:14:28;101516.28;;;19.34;94.49
66887;BME280;53798;51.680;5.976;2022-08-20T06:17:10;101514.13;;;19.40;94.05
66887;BME280;53798;51.680;5.976;2022-08-20T06:19:42;101520.50;;;19.38;93.36
66887;BME280;53798;51.680;5.976;2022-08-20T06:22:11;101517.13;;;19.34;93.71
66887;BME280;53798;51.680;5.976;2022-08-20T06:24:50;101518.16;;;19.32;93.77
66887;BME280;53798;51.680;5.976;2022-08-20T06:27:18;101517.31;;;19.31;93.43
66887;BME280;53798;51.680;5.976;2022-08-20T06:29:46;101520.00;;;19.31;93.06
66887;BME280;53798;51.680;5.976;2022-08-20T06:32:15;101529.72;;;19.32;92.87
66887;BME280;53798;51.680;5.976;2022-08-20T06:34:42;101530.47;;;19.34;92.95
66887;BME280;53798;51.680;5.976;2022-08-20T06:37:22;101527.81;;;19.34;93.16
66887;BME280;53798;51.680;5.976;2022-08-20T06:40:08;101529.53;;;19.35;92.57
66887;BME280;53798;51.680;5.976;2022-08-20T06:42:38;101521.63;;;19.34;92.78
66887;BME280;53798;51.680;5.976;2022-08-20T06:45:29;101534.97;;;19.34;92.57
66887;BME280;53798;51.680;5.976;2022-08-20T06:48:03;101535.94;;;19.33;92.57
66887;BME280;53798;51.680;5.976;2022-08-20T06:50:37;101540.91;;;19.39;92.72
66887;BME280;53798;51.680;5.976;2022-08-20T06:53:17;101535.06;;;19.48;92.14
66887;BME280;53798;51.680;5.976;2022-08-20T06:55:50;101525.38;;;19.62;92.04
66887;BME280;53798;51.680;5.976;2022-08-20T06:58:20;101537.38;;;19.70;91.67
66887;BME280;53798;51.680;5.976;2022-08-20T07:01:08;101533.81;;;19.70;90.61
66887;BME280;53798;51.680;5.976;2022-08-20T07:03:38;101539.66;;;19.77;91.20
66887;BME280;53798;51.680;5.976;2022-08-20T07:06:25;101541.66;;;19.89;91.17
66887;BME280;53798;51.680;5.976;2022-08-20T07:08:54;101537.16;;;19.90;89.84
66887;BME280;53798;51.680;5.976;2022-08-20T07:11:22;101540.06;;;20.01;90.50
66887;BME280;53798;51.680;5.976;2022-08-20T07:13:57;101544.53;;;20.16;90.71
66887;BME280;53798;51.680;5.976;2022-08-20T07:16:25;101543.53;;;20.33;88.91
66887;BME280;53798;51.680;5.976;2022-08-20T07:18:53;101538.72;;;20.39;87.58
66887;BME280;53798;51.680;5.976;2022-08-20T07:21:20;101535.94;;;20.40;87.52
66887;BME280;53798;51.680;5.976;2022-08-20T07:23:47;101533.97;;;20.44;88.30
66887;BME280;53798;51.680;5.976;2022-08-20T07:26:16;101542.19;;;20.55;87.82
66887;BME280;53798;51.680;5.976;2022-08-20T07:28:44;101537.03;;;20.67;87.48
66887;BME280;53798;51.680;5.976;2022-08-20T07:31:11;101543.50;;;20.78;86.83
66887;BME280;53798;51.680;5.976;2022-08-20T07:34:01;101550.19;;;21.00;85.37
66887;BME280;53798;51.680;5.976;2022-08-20T07:36:29;101543.06;;;21.14;84.47
66887;BME280;53798;51.680;5.976;2022-08-20T07:38:57;101550.06;;;21.16;84.42
66887;BME280;53798;51.680;5.976;2022-08-20T07:41:24;101551.38;;;21.23;84.29
66887;BME280;53798;51.680;5.976;2022-08-20T07:43:51;101551.56;;;21.35;83.58
66887;BME280;53798;51.680;5.976;2022-08-20T07:46:19;101547.69;;;21.39;81.65
66887;BME280;53798;51.680;5.976;2022-08-20T07:48:48;101558.84;;;21.33;80.50
66887;BME280;53798;51.680;5.976;2022-08-20T07:51:19;101563.09;;;21.50;80.38
66887;BME280;53798;51.680;5.976;2022-08-20T07:53:49;101561.94;;;21.54;80.76
66887;BME280;53798;51.680;5.976;2022-08-20T07:56:20;101556.47;;;21.55;80.79
66887;BME280;53798;51.680;5.976;2022-08-20T07:58:53;101561.28;;;21.50;80.61
66887;BME280;53798;51.680;5.976;2022-08-20T08:01:24;101569.78;;;21.57;81.17
66887;BME280;53798;51.680;5.976;2022-08-20T08:03:56;101569.00;;;21.69;79.77
66887;BME280;53798;51.680;5.976;2022-08-20T08:06:25;101566.97;;;21.73;81.09
66887;BME280;53798;51.680;5.976;2022-08-20T08:09:16;101576.66;;;21.76;79.78
66887;BME280;53798;51.680;5.976;2022-08-20T08:11:47;101573.81;;;21.64;79.04
66887;BME280;53798;51.680;5.976;2022-08-20T08:14:19;101576.28;;;21.53;80.51
66887;BME280;53798;51.680;5.976;2022-08-20T08:16:49;101572.00;;;21.50;80.95
66887;BME280;53798;51.680;5.976;2022-08-20T08:19:20;101572.56;;;21.55;80.86
66887;BME280;53798;51.680;5.976;2022-08-20T08:21:47;101570.66;;;21.85;79.89
66887;BME280;53798;51.680;5.976;2022-08-20T08:24:15;101569.16;;;22.21;78.14
66887;BME280;53798;51.680;5.976;2022-08-20T08:26:47;101565.88;;;22.43;78.70
66887;BME280;53798;51.680;5.976;2022-08-20T08:29:16;101572.78;;;22.60;76.71
66887;BME280;53798;51.680;5.976;2022-08-20T08:31:43;101565.78;;;22.71;77.38
66887;BME280;53798;51.680;5.976;2022-08-20T08:34:10;101570.06;;;22.86;75.74
66887;BME280;53798;51.680;5.976;2022-08-20T08:36:38;101575.84;;;22.93;75.68
66887;BME280;53798;51.680;5.976;2022-08-20T08:39:06;101580.25;;;23.07;76.37
66887;BME280;53798;51.680;5.976;2022-08-20T08:41:36;101582.28;;;23.03;74.27
66887;BME280;53798;51.680;5.976;2022-08-20T08:44:22;101578.75;;;23.03;75.24
66887;BME280;53798;51.680;5.976;2022-08-20T08:46:56;101580.16;;;22.83;74.73
66887;BME280;53798;51.680;5.976;2022-08-20T08:49:32;101584.59;;;22.58;74.99
66887;BME280;53798;51.680;5.976;2022-08-20T08:52:10;101594.41;;;22.31;75.00
66887;BME280;53798;51.680;5.976;2022-08-20T08:54:46;101580.84;;;22.07;75.93
66887;BME280;53798;51.680;5.976;2022-08-20T08:57:17;101588.94;;;21.93;75.26
66887;BME280;53798;51.680;5.976;2022-08-20T08:59:47;101593.19;;;21.82;75.69
66887;BME280;53798;51.680;5.976;2022-08-20T09:02:32;101589.97;;;21.77;76.01
66887;BME280;53798;51.680;5.976;2022-08-20T09:05:10;101591.91;;;22.15;75.44
66887;BME280;53798;51.680;5.976;2022-08-20T09:07:44;101592.34;;;22.62;74.52
66887;BME280;53798;51.680;5.976;2022-08-20T09:10:16;101595.09;;;23.00;72.36
66887;BME280;53798;51.680;5.976;2022-08-20T09:12:49;101593.69;;;23.07;70.41
66887;BME280;53798;51.680;5.976;2022-08-20T09:15:18;101591.88;;;22.94;71.42
66887;BME280;53798;51.680;5.976;2022-08-20T09:17:47;101606.41;;;22.79;69.74
66887;BME280;53798;51.680;5.976;2022-08-20T09:20:15;101613.06;;;22.60;68.36
66887;BME280;53798;51.680;5.976;2022-08-20T09:22:44;101604.09;;;22.34;64.31
66887;BME280;53798;51.680;5.976;2022-08-20T09:25:11;101602.19;;;22.09;65.77
66887;BME280;53798;51.680;5.976;2022-08-20T09:27:39;101610.53;;;21.91;64.89
66887;BME280;53798;51.680;5.976;2022-08-20T09:30:10;101603.59;;;21.74;65.76
66887;BME280;53798;51.680;5.976;2022-08-20T09:32:39;101599.03;;;21.62;66.81
66887;BME280;53798;51.680;5.976;2022-08-20T09:35:08;101596.97;;;21.80;66.54
66887;BME280;53798;51.680;5.976;2022-08-20T09:37:36;101595.22;;;22.06;66.80
66887;BME280;53798;51.680;5.976;2022-08-20T09:40:06;101591.13;;;22.41;65.60
66887;BME280;53798;51.680;5.976;2022-08-20T09:42:36;101592.75;;;22.82;65.02
66887;BME280;53798;51.680;5.976;2022-08-20T09:45:10;101593.03;;;23.16;62.37
66887;BME280;53798;51.680;5.976;2022-08-20T09:47:39;101595.06;;;23.25;58.64
66887;BME280;53798;51.680;5.976;2022-08-20T09:50:21;101594.19;;;23.38;57.96
66887;BME280;53798;51.680;5.976;2022-08-20T09:52:51;101589.34;;;23.43;57.26
66887;BME280;53798;51.680;5.976;2022-08-20T09:55:31;101591.41;;;23.39;56.49
66887;BME280;53798;51.680;5.976;2022-08-20T09:58:21;101591.03;;;23.57;57.19
66887;BME280;53798;51.680;5.976;2022-08-20T10:00:52;101581.69;;;23.74;56.41
66887;BME280;53798;51.680;5.976;2022-08-20T10:03:19;101590.75;;;23.97;56.13
66887;BME280;53798;51.680;5.976;2022-08-20T10:05:47;101589.97;;;24.19;55.03
66887;BME280;53798;51.680;5.976;2022-08-20T10:08:14;101591.03;;;24.41;55.01
66887;BME280;53798;51.680;5.976;2022-08-20T10:10:42;101602.50;;;24.32;51.86
66887;BME280;53798;51.680;5.976;2022-08-20T10:13:09;101596.06;;;24.46;50.25
66887;BME280;53798;51.680;5.976;2022-08-20T10:15:43;101597.56;;;24.61;50.52
66887;BME280;53798;51.680;5.976;2022-08-20T10:18:10;101593.44;;;24.80;49.71
66887;BME280;53798;51.680;5.976;2022-08-20T10:20:39;101592.81;;;24.99;49.27
66887;BME280;53798;51.680;5.976;2022-08-20T10:23:07;101599.94;;;25.00;48.60
66887;BME280;53798;51.680;5.976;2022-08-20T10:25:37;101600.44;;;24.94;48.85
66887;BME280;53798;51.680;5.976;2022-08-20T10:28:07;101599.31;;;25.08;48.74
66887;BME280;53798;51.680;5.976;2022-08-20T10:30:34;101609.72;;;25.35;48.51
66887;BME280;53798;51.680;5.976;2022-08-20T10:33:02;101605.94;;;25.49;47.55
66887;BME280;53798;51.680;5.976;2022-08-20T10:35:29;101595.25;;;25.36;46.23
66887;BME280;53798;51.680;5.976;2022-08-20T10:37:56;101598.22;;;25.22;47.41
66887;BME280;53798;51.680;5.976;2022-08-20T10:40:24;101606.69;;;25.06;47.49
66887;BME280;53798;51.680;5.976;2022-08-20T10:42:51;101604.09;;;24.93;46.35
66887;BME280;53798;51.680;5.976;2022-08-20T10:45:18;101617.56;;;24.70;46.93
66887;BME280;53798;51.680;5.976;2022-08-20T10:47:47;101616.53;;;24.60;46.58
66887;BME280;53798;51.680;5.976;2022-08-20T10:50:15;101611.41;;;24.57;45.58
66887;BME280;53798;51.680;5.976;2022-08-20T10:52:42;101612.56;;;24.41;46.21
66887;BME280;53798;51.680;5.976;2022-08-20T10:55:10;101613.09;;;24.46;47.38
66887;BME280;53798;51.680;5.976;2022-08-20T10:57:39;101615.44;;;24.62;47.30
66887;BME280;53798;51.680;5.976;2022-08-20T11:00:11;101610.41;;;24.46;48.50
66887;BME280;53798;51.680;5.976;2022-08-20T11:02:40;101607.25;;;24.64;49.10
66887;BME280;53798;51.680;5.976;2022-08-20T11:05:07;101603.59;;;24.88;49.05
66887;BME280;53798;51.680;5.976;2022-08-20T11:07:38;101605.22;;;24.90;48.66
66887;BME280;53798;51.680;5.976;2022-08-20T11:10:27;101604.25;;;24.91;46.93
66887;BME280;53798;51.680;5.976;2022-08-20T11:12:57;101610.34;;;25.05;46.83
66887;BME280;53798;51.680;5.976;2022-08-20T11:15:25;101608.41;;;24.95;45.53
66887;BME280;53798;51.680;5.976;2022-08-20T11:17:54;101612.41;;;24.78;44.24
66887;BME280;53798;51.680;5.976;2022-08-20T11:20:23;101618.97;;;24.52;45.20
66887;BME280;53798;51.680;5.976;2022-08-20T11:22:54;101622.38;;;24.42;46.33
66887;BME280;53798;51.680;5.976;2022-08-20T11:25:22;101622.19;;;24.57;45.89
66887;BME280;53798;51.680;5.976;2022-08-20T11:27:52;101619.06;;;24.86;45.44
66887;BME280;53798;51.680;5.976;2022-08-20T11:30:27;101615.50;;;25.19;45.12
66887;BME280;53798;51.680;5.976;2022-08-20T11:32:58;101620.28;;;25.50;43.66
66887;BME280;53798;51.680;5.976;2022-08-20T11:35:28;101614.22;;;25.69;43.25
66887;BME280;53798;51.680;5.976;2022-08-20T11:38:16;101623.09;;;25.60;42.12
66887;BME280;53798;51.680;5.976;2022-08-20T11:40:44;101619.78;;;25.33;41.95
66887;BME280;53798;51.680;5.976;2022-08-20T11:43:13;101617.09;;;24.99;42.44
66887;BME280;53798;51.680;5.976;2022-08-20T11:45:45;101628.22;;;24.83;42.32
66887;BME280;53798;51.680;5.976;2022-08-20T11:48:16;101624.94;;;25.02;42.96
66887;BME280;53798;51.680;5.976;2022-08-20T11:50:45;101619.31;;;25.28;41.24
66887;BME280;53798;51.680;5.976;2022-08-20T11:53:15;101622.97;;;25.50;41.06
66887;BME280;53798;51.680;5.976;2022-08-20T11:55:42;101617.09;;;25.45;40.61
66887;BME280;53798;51.680;5.976;2022-08-20T11:58:11;101622.22;;;25.59;41.27
66887;BME280;53798;51.680;5.976;2022-08-20T12:00:38;101610.03;;;25.76;41.22
66887;BME280;53798;51.680;5.976;2022-08-20T12:03:07;101613.00;;;26.05;41.58
66887;BME280;53798;51.680;5.976;2022-08-20T12:05:39;101604.03;;;26.38;39.31
66887;BME280;53798;51.680;5.976;2022-08-20T12:08:09;101612.84;;;26.61;39.94
66887;BME280;53798;51.680;5.976;2022-08-20T12:10:55;101602.75;;;26.84;38.96
66887;BME280;53798;51.680;5.976;2022-08-20T12:13:31;101601.47;;;26.67;38.58
66887;BME280;53798;51.680;5.976;2022-08-20T12:16:17;101607.28;;;26.62;37.69
66887;BME280;53798;51.680;5.976;2022-08-20T12:18:46;101606.66;;;26.49;37.04
66887;BME280;53798;51.680;5.976;2022-08-20T12:21:14;101597.25;;;26.43;37.22
66887;BME280;53798;51.680;5.976;2022-08-20T12:23:42;101604.63;;;26.41;37.49
66887;BME280;53798;51.680;5.976;2022-08-20T12:26:09;101608.16;;;26.63;37.85
66887;BME280;53798;51.680;5.976;2022-08-20T12:28:37;101605.00;;;26.79;36.46
66887;BME280;53798;51.680;5.976;2022-08-20T12:31:05;101601.53;;;26.98;36.53
66887;BME280;53798;51.680;5.976;2022-08-20T12:33:32;101602.63;;;27.26;35.91
66887;BME280;53798;51.680;5.976;2022-08-20T12:35:59;101600.56;;;27.50;35.53
66887;BME280;53798;51.680;5.976;2022-08-20T12:38:26;101608.72;;;27.69;34.91
66887;BME280;53798;51.680;5.976;2022-08-20T12:40:54;101600.78;;;27.78;35.38
66887;BME280;53798;51.680;5.976;2022-08-20T12:43:21;101607.63;;;27.92;34.03
66887;BME280;53798;51.680;5.976;2022-08-20T12:45:51;101602.19;;;28.01;33.37
66887;BME280;53798;51.680;5.976;2022-08-20T12:48:18;101602.47;;;27.98;33.20
66887;BME280;53798;51.680;5.976;2022-08-20T12:50:46;101603.78;;;27.94;33.70
66887;BME280;53798;51.680;5.976;2022-08-20T12:53:16;101606.75;;;27.91;32.57
66887;BME280;53798;51.680;5.976;2022-08-20T12:55:44;101603.75;;;27.84;32.90
66887;BME280;53798;51.680;5.976;2022-08-20T12:58:12;101603.34;;;27.79;33.36
66887;BME280;53798;51.680;5.976;2022-08-20T13:00:41;101601.78;;;27.77;33.90
66887;BME280;53798;51.680;5.976;2022-08-20T13:03:18;101603.59;;;27.76;34.78
66887;BME280;53798;51.680;5.976;2022-08-20T13:05:48;101607.44;;;27.83;33.50
66887;BME280;53798;51.680;5.976;2022-08-20T13:08:15;101606.28;;;27.56;33.34
66887;BME280;53798;51.680;5.976;2022-08-20T13:10:44;101602.75;;;27.56;33.09
66887;BME280;53798;51.680;5.976;2022-08-20T13:13:13;101599.19;;;27.65;32.52
66887;BME280;53798;51.680;5.976;2022-08-20T13:15:48;101596.06;;;27.80;32.79